Time;durP1;ratioP1;P1;durP2;ratioP2;P2;SDS_P1;SDS_P2;PMS_P1;PMS_P2;Temp;Humidity;BMP_temperature;BMP_pressure;BME280_temperature;BME280_humidity;BME280_pressure;Samples;Min_cycle;Max_cycle;Signal;HPM_P1;HPM_P2
2023/03/15 00:02:25;;;;;;;0.60;0.60;;;13.80;53.60;;;;;;5064768;28;45357;-69
2023/03/15 00:04:53;;;;;;;0.43;0.43;;;13.80;53.70;;;;;;5069615;28;45508;-69
2023/03/15 00:07:24;;;;;;;0.30;0.30;;;13.80;53.70;;;;;;5087916;27;45252;-69
2023/03/15 00:09:51;;;;;;;0.82;0.70;;;13.80;53.70;;;;;;5087958;27;45408;-69
2023/03/15 00:12:21;;;;;;;0.40;0.40;;;13.80;54.20;;;;;;5087561;27;46337;-70
2023/03/15 00:14:48;;;;;;;0.57;0.57;;;13.70;53.60;;;;;;5087665;27;45319;-69
2023/03/15 00:17:15;;;;;;;0.63;0.63;;;13.70;53.60;;;;;;5087795;27;45415;-69
2023/03/15 00:19:42;;;;;;;0.50;0.50;;;13.70;53.60;;;;;;5087806;27;45308;-69
2023/03/15 00:22:09;;;;;;;1.25;0.50;;;13.70;53.60;;;;;;5087618;27;45390;-69
2023/03/15 00:24:36;;;;;;;1.27;0.52;;;13.70;53.60;;;;;;5087278;27;45288;-69
2023/03/15 00:27:04;;;;;;;0.40;0.40;;;13.70;53.60;;;;;;5087695;27;45146;-70
2023/03/15 00:29:32;;;;;;;0.52;0.52;;;13.60;53.50;;;;;;5087686;27;45361;-70
2023/03/15 00:31:59;;;;;;;0.50;0.50;;;13.60;53.50;;;;;;5087370;27;45494;-69
2023/03/15 00:34:26;;;;;;;0.55;0.45;;;13.60;53.60;;;;;;5087313;27;45272;-69
2023/03/15 00:36:53;;;;;;;1.35;0.70;;;13.60;54.10;;;;;;5084877;27;45427;-69
2023/03/15 00:39:20;;;;;;;0.50;0.50;;;13.60;53.50;;;;;;5087451;27;45288;-70
2023/03/15 00:41:47;;;;;;;0.43;0.43;;;13.50;53.50;;;;;;5087316;27;47564;-69
2023/03/15 00:44:14;;;;;;;1.00;0.60;;;13.50;53.50;;;;;;5087085;27;45467;-69
2023/03/15 00:46:42;;;;;;;1.00;0.60;;;13.50;53.50;;;;;;5087345;27;45250;-69
2023/03/15 00:49:09;;;;;;;0.40;0.40;;;13.50;53.50;;;;;;5071570;27;45353;-69
2023/03/15 00:51:36;;;;;;;0.60;0.60;;;13.50;53.40;;;;;;5066823;28;47387;-70
2023/03/15 00:54:03;;;;;;;0.68;0.40;;;13.50;53.40;;;;;;5066581;28;45399;-70
2023/03/15 00:56:30;;;;;;;0.65;0.40;;;13.50;53.40;;;;;;5063947;28;45320;-69
2023/03/15 00:58:57;;;;;;;0.57;0.57;;;13.40;53.40;;;;;;5066663;28;45789;-69
2023/03/15 01:01:25;;;;;;;0.93;0.45;;;13.40;53.30;;;;;;5066431;28;46309;-72
2023/03/15 01:03:53;;;;;;;0.70;0.40;;;13.40;53.40;;;;;;5066537;28;45388;-69
2023/03/15 01:06:21;;;;;;;0.57;0.50;;;13.40;53.40;;;;;;5081349;28;45373;-69
2023/03/15 01:08:48;;;;;;;0.73;0.60;;;13.40;53.30;;;;;;5087153;27;45194;-69
2023/03/15 01:11:15;;;;;;;1.35;0.60;;;13.30;53.20;;;;;;5086917;27;45324;-69
2023/03/15 01:13:42;;;;;;;0.63;0.63;;;13.40;53.40;;;;;;5086690;27;45431;-70
2023/03/15 01:16:09;;;;;;;0.52;0.52;;;13.30;53.30;;;;;;5086906;27;45304;-69
2023/03/15 01:18:37;;;;;;;0.57;0.52;;;13.30;53.20;;;;;;5086983;27;45194;-70
2023/03/15 01:21:06;;;;;;;0.50;0.50;;;13.30;53.40;;;;;;5086617;27;45782;-70
2023/03/15 01:23:33;;;;;;;0.47;0.47;;;13.30;53.20;;;;;;5086469;27;45426;-69
2023/03/15 01:26:00;;;;;;;0.60;0.50;;;13.30;53.30;;;;;;5086771;27;45368;-69
2023/03/15 01:28:27;;;;;;;0.63;0.45;;;13.20;53.20;;;;;;5087017;27;45257;-69
2023/03/15 01:30:54;;;;;;;0.43;0.43;;;13.20;53.30;;;;;;5086312;27;46304;-69
2023/03/15 01:33:21;;;;;;;0.55;0.45;;;13.20;53.20;;;;;;5086362;27;45516;-69
2023/03/15 01:35:48;;;;;;;0.63;0.52;;;13.20;53.20;;;;;;5086584;27;45267;-69
2023/03/15 01:38:17;;;;;;;0.85;0.50;;;13.10;53.20;;;;;;5086679;27;45416;-69
2023/03/15 01:40:47;;;;;;;0.60;0.60;;;13.20;53.20;;;;;;5086143;27;46429;-69
2023/03/15 01:43:17;;;;;;;0.50;0.50;;;13.10;53.20;;;;;;5086177;27;45326;-69
2023/03/15 01:46:04;;;;;;;0.55;0.52;;;13.10;53.10;;;;;;5086361;27;45265;-69
2023/03/15 01:48:34;;;;;;;0.43;0.43;;;13.10;53.10;;;;;;5076007;27;45279;-70
2023/03/15 01:51:01;;;;;;;0.47;0.47;;;13.10;53.20;;;;;;5065946;28;45370;-69
2023/03/15 01:53:29;;;;;;;0.28;0.28;;;13.10;53.20;;;;;;5065812;28;45316;-69
2023/03/15 01:55:56;;;;;;;0.40;0.40;;;13.00;53.10;;;;;;5065888;28;45439;-69
2023/03/15 01:58:23;;;;;;;0.40;0.38;;;13.00;53.10;;;;;;5066002;28;45657;-69
2023/03/15 02:00:51;;;;;;;0.50;0.50;;;13.00;53.10;;;;;;5065358;28;46257;-69
2023/03/15 02:03:23;;;;;;;0.75;0.50;;;13.00;53.10;;;;;;5065581;28;45272;-68
2023/03/15 02:05:53;;;;;;;0.35;0.35;;;13.00;53.10;;;;;;5076008;28;45367;-69
2023/03/15 02:08:22;;;;;;;0.43;0.43;;;13.00;53.00;;;;;;5085329;27;45644;-68
2023/03/15 02:10:51;;;;;;;0.40;0.40;;;13.00;53.10;;;;;;5085818;27;46413;-68
2023/03/15 02:13:21;;;;;;;0.40;0.40;;;12.90;53.00;;;;;;5085801;27;45252;-69
2023/03/15 02:15:48;;;;;;;1.98;0.40;;;13.00;53.10;;;;;;5085882;27;45326;-68
2023/03/15 02:18:15;;;;;;;0.25;0.25;;;12.90;53.00;;;;;;5086067;27;45331;-68
2023/03/15 02:20:45;;;;;;;0.55;0.55;;;12.90;52.90;;;;;;5085634;27;45401;-70
2023/03/15 02:23:12;;;;;;;0.50;0.40;;;12.90;53.00;;;;;;5085398;27;45378;-70
2023/03/15 02:25:42;;;;;;;0.55;0.55;;;12.90;53.10;;;;;;5085993;28;45408;-69
2023/03/15 02:28:12;;;;;;;0.57;0.50;;;12.80;53.10;;;;;;5086001;27;45695;-69
2023/03/15 02:30:39;;;;;;;0.40;0.40;;;12.80;53.00;;;;;;5085554;27;45326;-69
2023/03/15 02:33:07;;;;;;;0.30;0.30;;;12.80;53.00;;;;;;5085399;27;45281;-69
2023/03/15 02:35:34;;;;;;;0.30;0.30;;;12.80;53.00;;;;;;5085668;27;45413;-70
2023/03/15 02:38:02;;;;;;;0.32;0.32;;;12.80;53.00;;;;;;5085951;27;45629;-69
2023/03/15 02:40:29;;;;;;;0.68;0.55;;;12.80;53.00;;;;;;5085358;27;46942;-69
2023/03/15 02:42:59;;;;;;;0.50;0.50;;;12.70;53.00;;;;;;5085403;27;45276;-69
2023/03/15 02:45:30;;;;;;;0.30;0.30;;;12.70;53.00;;;;;;5085571;27;45263;-69
2023/03/15 02:47:57;;;;;;;0.60;0.57;;;12.70;53.00;;;;;;5079747;27;45400;-69
2023/03/15 02:50:24;;;;;;;0.82;0.50;;;12.70;52.90;;;;;;5065011;28;46746;-69
2023/03/15 02:52:51;;;;;;;0.40;0.40;;;12.70;53.00;;;;;;5064933;28;45325;-70
2023/03/15 02:55:20;;;;;;;0.88;0.45;;;12.70;53.00;;;;;;5065133;28;45378;-70
2023/03/15 02:57:47;;;;;;;0.70;0.40;;;12.70;52.90;;;;;;5065189;28;45545;-69
2023/03/15 03:00:14;;;;;;;1.00;0.50;;;12.60;52.80;;;;;;5064595;28;45179;-69
2023/03/15 03:02:43;;;;;;;0.93;0.43;;;12.60;52.90;;;;;;5064805;28;45355;-70
2023/03/15 03:05:10;;;;;;;0.40;0.40;;;12.60;52.90;;;;;;5069819;28;45332;-69
2023/03/15 03:07:37;;;;;;;0.32;0.28;;;12.60;52.90;;;;;;5085632;27;45238;-68
2023/03/15 03:10:05;;;;;;;2.35;0.65;;;12.50;52.80;;;;;;5084908;27;47356;-69
2023/03/15 03:12:31;;;;;;;0.40;0.40;;;12.60;52.90;;;;;;5084882;27;45333;-69
2023/03/15 03:14:58;;;;;;;0.77;0.40;;;12.50;52.80;;;;;;5085310;27;45368;-68
2023/03/15 03:17:26;;;;;;;0.95;0.40;;;12.50;52.80;;;;;;5085374;27;45466;-68
2023/03/15 03:19:54;;;;;;;0.43;0.43;;;12.50;52.80;;;;;;5087672;27;45386;-69
2023/03/15 03:22:23;;;;;;;0.28;0.28;;;12.50;52.80;;;;;;5088481;27;45303;-68
2023/03/15 03:24:50;;;;;;;0.40;0.40;;;12.50;52.80;;;;;;5088473;27;45343;-68
2023/03/15 03:27:16;;;;;;;0.30;0.30;;;12.40;52.80;;;;;;5088696;27;45282;-68
2023/03/15 03:29:43;;;;;;;0.33;0.33;;;12.40;52.80;;;;;;5088300;27;45227;-68
2023/03/15 03:32:10;;;;;;;0.50;0.50;;;12.40;52.80;;;;;;5088364;27;45255;-68
2023/03/15 03:34:37;;;;;;;0.28;0.28;;;12.40;52.70;;;;;;5088419;27;45444;-68
2023/03/15 03:37:06;;;;;;;0.20;0.20;;;12.40;52.70;;;;;;5088657;27;45354;-69
2023/03/15 03:39:33;;;;;;;0.60;0.50;;;12.40;52.80;;;;;;5088096;27;45498;-68
2023/03/15 03:41:59;;;;;;;0.47;0.40;;;12.30;52.70;;;;;;5088101;27;45302;-68
2023/03/15 03:44:27;;;;;;;0.65;0.38;;;12.30;52.70;;;;;;5088461;27;45272;-68
2023/03/15 03:46:53;;;;;;;0.43;0.43;;;12.30;52.70;;;;;;5088609;27;45376;-68
2023/03/15 03:49:20;;;;;;;0.57;0.50;;;12.30;52.70;;;;;;5070518;27;45367;-69
2023/03/15 03:51:47;;;;;;;0.30;0.30;;;12.30;52.70;;;;;;5067590;28;45353;-68
2023/03/15 03:54:15;;;;;;;0.80;0.60;;;12.30;52.60;;;;;;5067906;28;45316;-68
2023/03/15 03:56:42;;;;;;;1.20;0.40;;;12.30;52.60;;;;;;5068107;28;45413;-68
2023/03/15 03:59:09;;;;;;;0.43;0.43;;;12.20;52.70;;;;;;5067596;28;46424;-68
2023/03/15 04:01:36;;;;;;;0.77;0.50;;;12.20;52.60;;;;;;5067391;28;45576;-68
2023/03/15 04:04:03;;;;;;;0.40;0.40;;;12.20;52.50;;;;;;5067798;28;45297;-67
2023/03/15 04:06:30;;;;;;;0.30;0.30;;;12.20;52.60;;;;;;5083697;28;45522;-68
2023/03/15 04:08:57;;;;;;;0.57;0.50;;;12.20;52.70;;;;;;5087836;27;47581;-68
2023/03/15 04:11:25;;;;;;;0.50;0.50;;;12.10;52.60;;;;;;5087696;27;45308;-67
2023/03/15 04:13:53;;;;;;;0.30;0.30;;;12.10;52.60;;;;;;5088117;27;45326;-67
2023/03/15 04:16:19;;;;;;;1.08;0.73;;;12.10;52.60;;;;;;5088128;27;45581;-68
2023/03/15 04:18:46;;;;;;;0.40;0.40;;;12.10;52.60;;;;;;5087790;27;46399;-68
2023/03/15 04:21:13;;;;;;;0.40;0.40;;;12.10;52.60;;;;;;5087532;27;45247;-68
2023/03/15 04:23:40;;;;;;;0.43;0.43;;;12.00;52.50;;;;;;5087639;27;45377;-68
2023/03/15 04:26:07;;;;;;;1.30;0.50;;;12.00;52.60;;;;;;5087948;27;45412;-67
2023/03/15 04:28:36;;;;;;;0.82;0.40;;;12.00;52.50;;;;;;5087434;27;46678;-69
2023/03/15 04:31:09;;;;;;;1.00;0.40;;;12.00;52.50;;;;;;5086892;27;45407;-67
2023/03/15 04:33:39;;;;;;;0.40;0.40;;;12.00;52.50;;;;;;5087703;27;45272;-68
2023/03/15 04:36:06;;;;;;;0.73;0.60;;;11.90;52.50;;;;;;5087735;27;45409;-68
2023/03/15 04:38:34;;;;;;;1.43;0.50;;;11.90;52.50;;;;;;5087499;27;47638;-67
2023/03/15 04:41:01;;;;;;;0.40;0.40;;;11.90;52.50;;;;;;5087198;27;45335;-67
2023/03/15 04:43:27;;;;;;;0.30;0.30;;;11.90;52.40;;;;;;5087404;27;45379;-68
2023/03/15 04:45:56;;;;;;;0.53;0.40;;;11.90;52.50;;;;;;5087572;27;45422;-68
2023/03/15 04:48:22;;;;;;;0.50;0.50;;;11.90;52.50;;;;;;5077917;27;46797;-68
2023/03/15 04:50:49;;;;;;;1.33;0.50;;;11.90;52.50;;;;;;5066808;28;45350;-68
2023/03/15 04:53:16;;;;;;;0.43;0.43;;;11.80;52.40;;;;;;5067089;28;45277;-67
2023/03/15 04:55:43;;;;;;;0.63;0.50;;;11.80;52.40;;;;;;5067193;28;45558;-67
2023/03/15 04:58:10;;;;;;;0.53;0.40;;;11.80;52.50;;;;;;5066655;28;46735;-67
2023/03/15 05:00:37;;;;;;;0.50;0.50;;;11.80;52.50;;;;;;5066641;28;45368;-68
2023/03/15 05:03:05;;;;;;;0.40;0.40;;;11.80;52.40;;;;;;5066802;28;45245;-68
2023/03/15 05:05:35;;;;;;;1.07;0.50;;;11.70;52.40;;;;;;5074836;28;45190;-67
2023/03/15 05:08:02;;;;;;;1.10;0.50;;;11.70;52.40;;;;;;5086772;27;45466;-67
2023/03/15 05:10:30;;;;;;;0.50;0.50;;;11.70;52.40;;;;;;5086825;27;45250;-68
2023/03/15 05:12:57;;;;;;;0.60;0.23;;;11.70;52.50;;;;;;5086909;27;45295;-67
2023/03/15 05:15:24;;;;;;;0.40;0.40;;;11.70;52.50;;;;;;5087321;27;45267;-67
2023/03/15 05:17:53;;;;;;;0.40;0.40;;;11.70;52.50;;;;;;5086641;27;46506;-67
2023/03/15 05:20:22;;;;;;;0.40;0.40;;;11.70;52.50;;;;;;5086633;27;45326;-67
2023/03/15 05:22:48;;;;;;;0.40;0.40;;;11.60;52.50;;;;;;5086821;27;45314;-68
2023/03/15 05:25:15;;;;;;;0.53;0.53;;;11.60;52.50;;;;;;5086703;27;45395;-67
2023/03/15 05:27:45;;;;;;;0.20;0.20;;;11.60;52.40;;;;;;5086501;27;46415;-67
2023/03/15 05:30:13;;;;;;;0.50;0.50;;;11.60;52.40;;;;;;5086457;27;45288;-68
2023/03/15 05:32:43;;;;;;;0.30;0.30;;;11.60;52.50;;;;;;5086598;27;45123;-68
2023/03/15 05:35:10;;;;;;;0.50;0.50;;;11.60;52.40;;;;;;5086806;27;45524;-67
2023/03/15 05:37:38;;;;;;;0.47;0.47;;;11.50;52.30;;;;;;5086240;27;46483;-67
2023/03/15 05:40:07;;;;;;;0.40;0.40;;;11.50;52.40;;;;;;5086381;27;45311;-68
2023/03/15 05:42:34;;;;;;;0.60;0.60;;;11.50;52.40;;;;;;5085077;27;45371;-68
2023/03/15 05:45:01;;;;;;;0.73;0.40;;;11.50;52.40;;;;;;5086514;27;45249;-67
2023/03/15 05:47:28;;;;;;;0.40;0.40;;;11.50;52.40;;;;;;5084475;27;46355;-67
2023/03/15 05:49:55;;;;;;;0.43;0.43;;;11.50;52.40;;;;;;5065995;28;45288;-68
2023/03/15 05:52:22;;;;;;;0.50;0.50;;;11.50;52.40;;;;;;5065908;28;45381;-67
2023/03/15 05:54:51;;;;;;;0.43;0.40;;;11.50;52.40;;;;;;5066023;28;45626;-67
2023/03/15 05:57:17;;;;;;;0.50;0.50;;;11.40;52.40;;;;;;5065766;28;45499;-68
2023/03/15 05:59:44;;;;;;;0.40;0.40;;;11.40;52.40;;;;;;5065769;28;45347;-67
2023/03/15 06:02:11;;;;;;;0.40;0.40;;;11.40;52.40;;;;;;5065664;28;45400;-67
2023/03/15 06:04:38;;;;;;;1.43;0.60;;;11.40;52.30;;;;;;5066238;28;45256;-67
2023/03/15 06:07:05;;;;;;;0.50;0.50;;;11.40;52.40;;;;;;5085937;27;45539;-68
2023/03/15 06:09:32;;;;;;;0.40;0.40;;;11.40;52.40;;;;;;5086039;27;45371;-67
2023/03/15 06:12:00;;;;;;;0.83;0.57;;;11.40;52.40;;;;;;5085975;27;45187;-68
2023/03/15 06:14:27;;;;;;;1.77;0.50;;;11.40;52.40;;;;;;5086121;27;45303;-68
2023/03/15 06:16:54;;;;;;;0.63;0.40;;;11.30;52.30;;;;;;5085826;27;45241;-67
2023/03/15 06:19:21;;;;;;;0.30;0.30;;;11.30;52.30;;;;;;5085733;27;45236;-67
2023/03/15 06:21:48;;;;;;;0.67;0.50;;;11.30;52.30;;;;;;5085685;27;45253;-68
2023/03/15 06:24:15;;;;;;;0.40;0.40;;;11.30;52.30;;;;;;5085868;27;45506;-67
2023/03/15 06:26:42;;;;;;;1.23;0.50;;;11.30;52.30;;;;;;5085703;27;45582;-68
2023/03/15 06:29:10;;;;;;;0.47;0.47;;;11.30;52.30;;;;;;5085648;27;46039;-67
2023/03/15 06:31:36;;;;;;;1.33;0.50;;;11.30;52.20;;;;;;5085783;27;45289;-68
2023/03/15 06:34:06;;;;;;;0.53;0.53;;;11.30;52.80;;;;;;5085970;27;45464;-67
2023/03/15 06:36:32;;;;;;;0.40;0.40;;;11.30;52.30;;;;;;5085515;27;46413;-69
2023/03/15 06:39:01;;;;;;;0.40;0.40;;;11.30;52.30;;;;;;5085351;27;45285;-69
2023/03/15 06:41:28;;;;;;;1.43;0.60;;;11.30;52.30;;;;;;5085337;27;45466;-69
2023/03/15 06:43:55;;;;;;;0.73;0.70;;;11.30;52.20;;;;;;5085733;27;45327;-69
2023/03/15 06:46:24;;;;;;;1.60;0.50;;;11.20;52.20;;;;;;5085418;27;46665;-69
2023/03/15 06:48:51;;;;;;;0.40;0.40;;;11.20;52.20;;;;;;5072296;27;45336;-69
2023/03/15 06:51:18;;;;;;;0.60;0.60;;;11.20;52.20;;;;;;5065101;28;45268;-69
2023/03/15 06:53:44;;;;;;;0.97;0.27;;;11.20;52.30;;;;;;5066537;28;45243;-69
2023/03/15 06:56:11;;;;;;;0.40;0.40;;;11.20;52.20;;;;;;5068518;28;47361;-68
2023/03/15 06:58:38;;;;;;;1.53;0.50;;;11.20;52.10;;;;;;5068692;28;45434;-67
2023/03/15 07:01:05;;;;;;;0.40;0.40;;;11.20;52.20;;;;;;5068663;28;45399;-69
2023/03/15 07:03:33;;;;;;;0.50;0.50;;;11.20;52.20;;;;;;5068820;28;45333;-69
2023/03/15 07:06:01;;;;;;;0.43;0.40;;;11.20;52.10;;;;;;5080204;28;47280;-69
2023/03/15 07:08:27;;;;;;;0.50;0.50;;;11.20;52.10;;;;;;5088908;27;45366;-70
2023/03/15 07:10:54;;;;;;;0.50;0.50;;;11.20;52.10;;;;;;5088869;27;45273;-69
2023/03/15 07:13:21;;;;;;;0.73;0.50;;;11.20;52.10;;;;;;5089151;27;45508;-68
2023/03/15 07:15:52;;;;;;;0.77;0.63;;;11.20;52.00;;;;;;5088564;27;46673;-67
2023/03/15 07:18:19;;;;;;;0.60;0.60;;;11.20;52.00;;;;;;5088699;27;45402;-67
2023/03/15 07:20:47;;;;;;;0.50;0.50;;;11.20;52.00;;;;;;5088620;27;45269;-69
2023/03/15 07:23:14;;;;;;;0.83;0.70;;;11.20;52.00;;;;;;5088834;27;45473;-68
2023/03/15 07:25:41;;;;;;;1.77;0.70;;;11.20;52.00;;;;;;5088460;27;46369;-69
2023/03/15 07:28:08;;;;;;;0.50;0.47;;;11.20;52.50;;;;;;5088425;27;45450;-69
2023/03/15 07:30:35;;;;;;;0.50;0.50;;;11.20;52.00;;;;;;5088706;27;45235;-69
2023/03/15 07:33:02;;;;;;;0.50;0.50;;;11.20;51.90;;;;;;5088819;27;45222;-69
2023/03/15 07:35:29;;;;;;;0.70;0.67;;;11.20;51.90;;;;;;5088249;27;45186;-69
2023/03/15 07:37:57;;;;;;;0.50;0.50;;;11.20;51.90;;;;;;5088188;27;45397;-69
2023/03/15 07:40:25;;;;;;;0.50;0.50;;;11.20;51.90;;;;;;5088205;27;45363;-69
2023/03/15 07:42:52;;;;;;;0.30;0.30;;;11.20;51.80;;;;;;5088514;27;45451;-68
2023/03/15 07:45:19;;;;;;;1.27;0.50;;;11.20;51.80;;;;;;5087959;27;45265;-69
2023/03/15 07:47:46;;;;;;;0.73;0.60;;;11.20;51.80;;;;;;5083761;27;45363;-69
2023/03/15 07:50:14;;;;;;;0.80;0.40;;;11.20;51.90;;;;;;5068111;28;45370;-69
2023/03/15 07:52:41;;;;;;;0.97;0.40;;;11.20;51.90;;;;;;5068060;28;45585;-69
2023/03/15 07:55:10;;;;;;;1.13;0.40;;;11.20;51.80;;;;;;5067686;28;46359;-69
2023/03/15 07:57:36;;;;;;;1.47;0.40;;;11.20;51.90;;;;;;5067536;28;45324;-68
2023/03/15 08:00:05;;;;;;;0.63;0.53;;;11.20;51.90;;;;;;5067689;28;45336;-69
2023/03/15 08:02:31;;;;;;;0.40;0.40;;;11.20;51.90;;;;;;5067678;28;45177;-69
2023/03/15 08:04:58;;;;;;;0.50;0.40;;;11.20;51.80;;;;;;5069457;28;46387;-69
2023/03/15 08:07:25;;;;;;;0.87;0.53;;;11.20;51.80;;;;;;5087848;27;45334;-69
2023/03/15 08:09:52;;;;;;;0.57;0.40;;;11.20;51.80;;;;;;5087906;27;45323;-69
2023/03/15 08:12:20;;;;;;;0.40;0.40;;;11.20;51.80;;;;;;5087936;27;45370;-69
2023/03/15 08:14:47;;;;;;;1.60;0.53;;;11.20;51.70;;;;;;5087637;27;47305;-69
2023/03/15 08:17:15;;;;;;;0.60;0.50;;;11.20;51.70;;;;;;5087751;27;45249;-69
2023/03/15 08:19:41;;;;;;;0.40;0.40;;;11.20;51.80;;;;;;5088003;27;45440;-69
2023/03/15 08:22:09;;;;;;;0.43;0.40;;;11.20;52.30;;;;;;5087732;27;45189;-69
2023/03/15 08:24:36;;;;;;;0.40;0.40;;;11.20;51.70;;;;;;5087178;27;46543;-69
2023/03/15 08:27:03;;;;;;;1.07;0.40;;;11.30;51.80;;;;;;5087680;27;45210;-70
2023/03/15 08:29:31;;;;;;;0.63;0.40;;;11.30;51.70;;;;;;5087655;27;45359;-70
2023/03/15 08:31:58;;;;;;;0.70;0.50;;;11.30;51.70;;;;;;5087723;27;45311;-70
2023/03/15 08:34:25;;;;;;;0.40;0.40;;;11.30;51.70;;;;;;5087361;27;46967;-69
2023/03/15 08:36:52;;;;;;;0.40;0.40;;;11.30;51.70;;;;;;5084739;27;45257;-69
2023/03/15 08:39:19;;;;;;;0.83;0.60;;;11.30;51.60;;;;;;5087416;27;45205;-70
2023/03/15 08:41:46;;;;;;;0.50;0.50;;;11.30;51.60;;;;;;5087685;27;45390;-70
2023/03/15 08:44:13;;;;;;;0.50;0.50;;;11.30;51.60;;;;;;5087101;27;46336;-69
2023/03/15 08:46:41;;;;;;;0.60;0.60;;;11.30;51.60;;;;;;5087213;27;45316;-69
2023/03/15 08:49:08;;;;;;;0.70;0.70;;;11.40;51.70;;;;;;5071592;27;45277;-69
2023/03/15 08:51:35;;;;;;;0.97;0.53;;;11.40;51.60;;;;;;5067065;28;45395;-68
2023/03/15 08:54:04;;;;;;;0.53;0.53;;;11.40;51.60;;;;;;5066637;28;47380;-68
2023/03/15 08:56:31;;;;;;;2.00;0.40;;;11.40;51.50;;;;;;5066915;28;45202;-70
2023/03/15 08:58:58;;;;;;;0.67;0.50;;;11.40;51.50;;;;;;5066989;28;45265;-70
2023/03/15 09:01:25;;;;;;;2.03;0.70;;;11.50;51.50;;;;;;5066863;28;45358;-68
2023/03/15 09:03:53;;;;;;;1.07;0.70;;;11.50;51.50;;;;;;5066730;28;47601;-68
2023/03/15 09:06:20;;;;;;;0.40;0.40;;;11.50;51.40;;;;;;5081099;28;45327;-69
2023/03/15 09:08:47;;;;;;;0.80;0.80;;;11.50;51.40;;;;;;5087206;27;45338;-70
2023/03/15 09:11:13;;;;;;;1.13;0.60;;;11.50;51.50;;;;;;5087150;27;45327;-69
2023/03/15 09:13:40;;;;;;;1.00;0.53;;;11.50;51.40;;;;;;5086875;27;46422;-70
2023/03/15 09:16:07;;;;;;;2.13;0.70;;;11.50;51.50;;;;;;5086660;27;45440;-72
2023/03/15 09:18:34;;;;;;;7.87;1.10;;;11.50;51.80;;;;;;5085281;27;45373;-71
2023/03/15 09:21:04;;;;;;;3.90;0.73;;;11.60;53.90;;;;;;5080173;28;47085;-68
2023/03/15 09:23:32;;;;;;;1.30;0.73;;;11.60;53.40;;;;;;5067109;27;45559;-68
2023/03/15 09:25:59;;;;;;;4.50;1.00;;;11.70;52.90;;;;;;5068552;28;45560;-71
2023/03/15 09:28:26;;;;;;;1.20;1.10;;;11.70;52.70;;;;;;5078704;28;45475;-68
2023/03/15 09:30:53;;;;;;;4.70;1.13;;;11.80;52.60;;;;;;5086634;27;45427;-70
2023/03/15 09:33:21;;;;;;;7.13;3.37;;;11.90;53.10;;;;;;5086382;27;46387;-70
2023/03/15 09:35:50;;;;;;;4.00;2.87;;;11.90;53.10;;;;;;5080236;27;45411;-70
2023/03/15 09:38:18;;;;;;;8.17;3.73;;;11.90;52.70;;;;;;5066417;27;45349;-69
2023/03/15 09:40:45;;;;;;;5.97;5.13;;;12.00;52.70;;;;;;5066198;28;45640;-70
2023/03/15 09:43:30;;;;;;;9.20;4.40;;;12.10;52.70;;;;;;5065684;28;46300;-67
2023/03/15 09:46:03;;;;;;;9.23;6.50;;;12.20;52.50;;;;;;5065936;28;45433;-68
2023/03/15 09:48:31;;;;;;;12.27;8.67;;;12.30;52.10;;;;;;5076116;28;45311;-66
2023/03/15 09:51:00;;;;;;;11.03;5.90;;;12.30;52.10;;;;;;5086177;27;45328;-67
2023/03/15 09:53:30;;;;;;;5.33;4.73;;;12.40;52.10;;;;;;5086007;27;45568;-70
2023/03/15 09:55:57;;;;;;;5.10;4.30;;;12.50;52.30;;;;;;5085883;27;45469;-67
2023/03/15 09:58:25;;;;;;;8.67;4.23;;;12.60;52.60;;;;;;5086197;27;44777;-69
2023/03/15 10:00:53;;;;;;;5.33;3.43;;;12.70;52.50;;;;;;5086164;27;45466;-68
2023/03/15 10:03:23;;;;;;;5.43;3.07;;;12.80;51.50;;;;;;5085688;27;46415;-67
2023/03/15 10:05:52;;;;;;;4.20;3.43;;;12.80;51.30;;;;;;5085779;27;45236;-72
2023/03/15 10:08:19;;;;;;;7.73;3.20;;;12.90;51.30;;;;;;5085963;27;45388;-69
2023/03/15 10:10:51;;;;;;;4.60;3.07;;;12.90;51.40;;;;;;5085965;27;45377;-69
2023/03/15 10:13:29;;;;;;;9.93;3.77;;;12.90;51.20;;;;;;5085577;27;45460;-67
2023/03/15 10:16:09;;;;;;;7.50;3.20;;;13.00;51.20;;;;;;5085699;27;45312;-70
2023/03/15 10:18:42;;;;;;;6.90;6.20;;;13.10;51.00;;;;;;5085653;27;45242;-71
2023/03/15 10:21:11;;;;;;;9.33;6.93;;;13.30;52.00;;;;;;5085891;27;45306;-68
2023/03/15 10:23:42;;;;;;;10.10;8.07;;;13.50;51.50;;;;;;5084972;27;46659;-67
2023/03/15 10:26:11;;;;;;;13.93;9.18;;;13.60;51.30;;;;;;5085335;27;45399;-68
2023/03/15 10:28:38;;;;;;;13.05;5.22;;;13.70;50.10;;;;;;5084400;27;45177;-67
2023/03/15 10:31:11;;;;;;;6.05;4.53;;;13.70;49.70;;;;;;5085394;27;45355;-72
2023/03/15 10:33:38;;;;;;;6.28;4.00;;;13.80;50.60;;;;;;5085981;27;45485;-71
2023/03/15 10:36:13;;;;;;;7.43;4.23;;;13.80;49.70;;;;;;5085730;27;45572;-71
2023/03/15 10:38:40;;;;;;;12.55;4.43;;;13.90;49.50;;;;;;5085560;27;45255;-71
2023/03/15 10:41:07;;;;;;;15.98;4.85;;;14.00;49.50;;;;;;5085654;27;45470;-69
2023/03/15 10:43:35;;;;;;;9.30;4.40;;;14.10;49.10;;;;;;5085046;27;45456;-68
2023/03/15 10:46:03;;;;;;;9.32;4.50;;;14.10;49.10;;;;;;5085319;27;45249;-69
2023/03/15 10:48:31;;;;;;;10.00;5.35;;;14.10;49.30;;;;;;5075225;27;45261;-70
2023/03/15 10:50:58;;;;;;;13.57;6.60;;;14.10;49.30;;;;;;5065145;28;45329;-68
2023/03/15 10:53:25;;;;;;;8.77;5.90;;;14.20;49.80;;;;;;5064597;28;45501;-69
2023/03/15 10:55:58;;;;;;;9.05;4.88;;;14.30;49.40;;;;;;5064649;27;45216;-71
2023/03/15 10:58:27;;;;;;;10.45;5.60;;;14.40;49.00;;;;;;5064853;28;45201;-71
2023/03/15 11:00:59;;;;;;;5.95;4.65;;;14.50;49.80;;;;;;5064802;28;45642;-70
2023/03/15 11:03:27;;;;;;;7.95;6.10;;;14.60;48.60;;;;;;5064675;28;45800;-70
2023/03/15 11:05:54;;;;;;;22.38;8.98;;;14.70;48.40;;;;;;5073405;28;45310;-69
2023/03/15 11:08:22;;;;;;;14.73;8.13;;;14.70;50.10;;;;;;5065623;27;45314;-70
2023/03/15 11:10:55;;;;;;;14.25;5.90;;;14.80;49.50;;;;;;5064657;28;45416;-71
2023/03/15 11:13:23;;;;;;;12.35;5.90;;;14.90;48.70;;;;;;5064533;28;45566;-66
2023/03/15 11:16:02;;;;;;;19.20;6.60;;;14.90;48.50;;;;;;5064356;28;45385;-69
2023/03/15 11:18:31;;;;;;;12.00;7.78;;;15.00;48.30;;;;;;5064717;28;45309;-67
2023/03/15 11:20:58;;;;;;;11.43;8.10;;;15.00;48.60;;;;;;5064800;28;45289;-70
2023/03/15 11:23:26;;;;;;;18.15;8.85;;;15.10;48.60;;;;;;5064192;28;45335;-69
2023/03/15 11:25:53;;;;;;;12.43;7.53;;;15.10;48.70;;;;;;5064427;28;45165;-70
2023/03/15 11:28:22;;;;;;;19.23;6.30;;;15.30;48.70;;;;;;5064594;28;45311;-68
2023/03/15 11:30:48;;;;;;;13.70;5.70;;;15.40;48.40;;;;;;5064475;28;45398;-67
2023/03/15 11:33:26;;;;;;;6.82;6.13;;;15.50;47.80;;;;;;5064170;28;46680;-68
2023/03/15 11:35:53;;;;;;;9.02;6.78;;;15.50;47.70;;;;;;5064402;28;45195;-66
2023/03/15 11:38:25;;;;;;;12.23;6.60;;;15.60;47.50;;;;;;5064525;28;45277;-65
2023/03/15 11:40:55;;;;;;;9.40;6.85;;;15.60;47.50;;;;;;5067123;28;45308;-65
2023/03/15 11:43:24;;;;;;;10.60;7.05;;;15.70;47.60;;;;;;5067623;28;46595;-65
2023/03/15 11:45:54;;;;;;;11.55;6.97;;;15.80;47.10;;;;;;5067641;28;45376;-65
2023/03/15 11:48:23;;;;;;;10.25;6.82;;;15.90;46.90;;;;;;5076910;28;45575;-65
2023/03/15 11:50:52;;;;;;;7.75;6.72;;;16.00;46.60;;;;;;5088145;27;45377;-65
2023/03/15 11:53:19;;;;;;;12.93;6.55;;;16.00;46.50;;;;;;5087854;27;47588;-65
2023/03/15 11:55:47;;;;;;;8.95;6.35;;;16.10;46.40;;;;;;5087820;27;45278;-65
2023/03/15 11:58:28;;;;;;;7.63;6.57;;;16.10;46.30;;;;;;5088017;27;45312;-65
2023/03/15 12:00:55;;;;;;;10.13;6.50;;;16.20;46.20;;;;;;5088122;27;45300;-65
2023/03/15 12:03:34;;;;;;;10.25;6.30;;;16.10;46.30;;;;;;5087665;27;46653;-65
2023/03/15 12:06:25;;;;;;;7.60;6.50;;;15.90;46.60;;;;;;5087683;27;45312;-65
2023/03/15 12:08:52;;;;;;;7.32;6.22;;;15.80;46.60;;;;;;5066679;27;45623;-64
2023/03/15 12:11:38;;;;;;;6.18;5.57;;;15.70;46.80;;;;;;5072294;27;45451;-65
2023/03/15 12:14:12;;;;;;;7.10;5.40;;;15.70;47.00;;;;;;5084491;27;45407;-64
2023/03/15 12:16:41;;;;;;;8.65;5.53;;;15.70;47.20;;;;;;5082476;27;45466;-65
2023/03/15 12:19:13;;;;;;;7.43;5.47;;;15.60;47.20;;;;;;5067244;28;45216;-66
2023/03/15 12:21:40;;;;;;;5.10;4.47;;;15.70;47.30;;;;;;5067145;28;45458;-65
2023/03/15 12:24:10;;;;;;;7.50;4.93;;;15.80;47.10;;;;;;5066756;28;46621;-65
2023/03/15 12:26:43;;;;;;;16.75;5.40;;;15.90;46.80;;;;;;5064592;28;45374;-65
2023/03/15 12:29:16;;;;;;;21.92;5.95;;;15.90;46.90;;;;;;5067015;28;45596;-65
2023/03/15 12:31:45;;;;;;;13.85;4.65;;;15.80;47.20;;;;;;5067104;28;45362;-66
2023/03/15 12:34:15;;;;;;;5.25;3.92;;;15.90;47.00;;;;;;5066957;28;45607;-66
2023/03/15 12:36:44;;;;;;;5.32;3.92;;;15.80;47.30;;;;;;5066744;28;45215;-66
2023/03/15 12:39:22;;;;;;;10.45;4.40;;;15.70;47.80;;;;;;5067015;28;45295;-66
2023/03/15 12:41:49;;;;;;;7.85;4.80;;;15.60;48.10;;;;;;5068224;28;45362;-67
2023/03/15 12:44:38;;;;;;;7.53;4.47;;;15.60;48.00;;;;;;5065019;28;46581;-66
2023/03/15 12:47:05;;;;;;;4.97;4.00;;;15.60;48.10;;;;;;5056959;27;45177;-66
2023/03/15 12:49:35;;;;;;;6.30;3.85;;;15.70;47.70;;;;;;5085890;28;45308;-65
2023/03/15 12:52:03;;;;;;;7.10;3.90;;;15.70;47.70;;;;;;5086646;27;45458;-65